Yokkaichi, Japan
Current Conditions -  °F | °C
As of 8:30 PM on Monday 20 Oct 2014 (Local Time) from RJGG Reporting Station
Rain Showers Rain Showers  
Wind Chill: 64°   Ceiling: 1500
Heat Index: 64°   Visibility: 2.5mi
Dew Point: 63°   Wind: 12mph
Humidity: 94%   Direction: 10°N
Pressure: 30.15"   Gusts: NA
Location:  34.97°N, 136.64°E
Report Text: RJGG 201130Z 01010KT 4000 SHRA BR FEW003 SCT010 BKN015 18/17 Q1021 TEMPO 6000 -SHRA
Loading
Personal Weather Stations






























Interactive Weather Map
Tropical Storm Tracking
New forecast layout! Learn more

10-Day Weather Forecast

Advertisements
Track Severe Weather on mobile